createdAt,value
2017-10-31T16:39:01.930Z,7.80
2017-10-31T16:41:29.471Z,8.80
2017-10-31T16:43:57.018Z,7.63
2017-10-31T16:46:25.308Z,8.03
2017-10-31T16:48:53.579Z,8.70
2017-10-31T16:51:21.896Z,8.17
2017-10-31T16:53:49.442Z,8.50
2017-10-31T16:56:16.992Z,9.10
2017-10-31T16:58:45.327Z,8.90
2017-10-31T17:01:12.863Z,8.90
2017-10-31T17:03:40.371Z,8.47
2017-10-31T17:06:08.856Z,8.73
2017-10-31T17:08:36.390Z,8.83
2017-10-31T17:11:03.888Z,9.10
2017-10-31T17:13:31.441Z,8.73
2017-10-31T17:15:58.981Z,9.23
2017-10-31T17:18:26.527Z,9.00
2017-10-31T17:20:54.064Z,8.97
2017-10-31T17:23:21.624Z,8.87
2017-10-31T17:25:49.179Z,9.50
2017-10-31T17:28:17.236Z,8.93
2017-10-31T17:30:44.806Z,8.60
2017-10-31T17:33:12.341Z,8.83
2017-10-31T17:35:39.882Z,9.03
2017-10-31T17:38:08.177Z,8.87
2017-10-31T17:40:35.727Z,8.93
2017-10-31T17:43:04.052Z,8.67
2017-10-31T17:45:31.590Z,8.17
2017-10-31T17:47:59.148Z,9.70
2017-10-31T17:50:26.697Z,8.33
2017-10-31T17:52:55.007Z,7.97
2017-10-31T17:55:22.535Z,8.83
2017-10-31T17:57:50.075Z,8.80
2017-10-31T18:00:17.621Z,9.00
2017-10-31T18:02:45.164Z,8.90
2017-10-31T18:05:12.728Z,8.43
2017-10-31T18:07:40.373Z,8.83
2017-10-31T18:10:08.681Z,8.77
2017-10-31T18:12:36.229Z,8.33
2017-10-31T18:15:04.515Z,9.00
2017-10-31T18:17:32.887Z,8.47
2017-10-31T18:20:01.196Z,7.83
2017-10-31T18:22:28.739Z,8.73
2017-10-31T18:24:56.293Z,8.50
2017-10-31T18:27:24.587Z,8.60
2017-10-31T18:29:53.531Z,7.73
2017-10-31T18:32:21.099Z,7.93
2017-10-31T18:34:48.648Z,8.43
2017-10-31T18:37:16.188Z,8.30
2017-10-31T18:39:43.722Z,8.37
2017-10-31T18:42:11.246Z,9.03
2017-10-31T18:44:38.802Z,8.67
2017-10-31T18:47:06.323Z,8.73
2017-10-31T18:49:34.650Z,7.50
2017-10-31T18:52:02.226Z,8.30
2017-10-31T18:54:29.802Z,7.83
2017-10-31T18:56:57.328Z,8.60
2017-10-31T18:59:24.853Z,7.93
2017-10-31T19:01:53.190Z,7.67
2017-10-31T19:04:22.192Z,8.40
2017-10-31T19:06:49.732Z,7.20
2017-10-31T19:09:17.303Z,7.40
2017-10-31T19:11:45.247Z,7.80
2017-10-31T19:14:13.545Z,7.80
2017-10-31T19:16:41.091Z,7.70
2017-10-31T19:19:09.406Z,7.77
2017-10-31T19:21:36.971Z,7.40
2017-10-31T19:24:04.539Z,7.37
2017-10-31T19:26:32.114Z,7.57
2017-10-31T19:28:59.628Z,7.30
2017-10-31T19:31:28.047Z,7.03
2017-10-31T19:33:56.215Z,6.87
2017-10-31T19:36:23.755Z,7.80
2017-10-31T19:38:52.070Z,7.20
2017-10-31T19:41:19.630Z,6.93
2017-10-31T19:43:47.189Z,7.17
2017-10-31T19:46:15.314Z,7.43
2017-10-31T19:48:42.869Z,6.97
2017-10-31T19:51:10.380Z,7.00
2017-10-31T19:53:38.702Z,7.70
2017-10-31T19:56:06.260Z,7.10
2017-10-31T19:58:33.826Z,6.90
2017-10-31T20:01:01.393Z,7.13
2017-10-31T20:03:28.969Z,7.03
2017-10-31T20:05:56.459Z,7.00
2017-10-31T20:08:24.772Z,6.50
2017-10-31T20:10:53.350Z,8.03
2017-10-31T20:13:21.656Z,7.63
2017-10-31T20:15:50.170Z,7.17
2017-10-31T20:18:17.759Z,6.47
2017-10-31T20:20:45.877Z,7.90
2017-10-31T20:23:13.432Z,7.07
2017-10-31T20:25:41.761Z,7.43
2017-10-31T20:28:09.287Z,6.10
2017-10-31T20:30:38.425Z,7.13
2017-10-31T20:33:05.972Z,6.93
2017-10-31T20:35:33.526Z,6.57
2017-10-31T20:38:01.778Z,5.97
2017-10-31T20:40:29.658Z,6.03
2017-10-31T20:42:57.242Z,6.17
2017-10-31T20:45:25.559Z,6.83
2017-10-31T20:47:53.105Z,6.53
2017-10-31T20:50:20.629Z,6.10
2017-10-31T20:52:48.266Z,6.00
2017-10-31T20:55:15.725Z,6.37
2017-10-31T20:57:43.266Z,7.03
2017-10-31T21:00:10.831Z,6.50
2017-10-31T21:02:38.354Z,6.40
2017-10-31T21:05:05.911Z,6.43
2017-10-31T21:07:33.470Z,5.50
2017-10-31T21:10:01.012Z,5.73
2017-10-31T21:12:28.967Z,6.47
2017-10-31T21:14:56.518Z,6.43
2017-10-31T21:17:24.015Z,6.77
2017-10-31T21:19:51.531Z,6.40
2017-10-31T21:22:19.817Z,5.97
2017-10-31T21:24:48.118Z,5.97
2017-10-31T21:27:15.662Z,6.07
2017-10-31T21:29:43.980Z,6.43
2017-10-31T21:32:11.529Z,6.20
2017-10-31T21:34:39.088Z,5.87
2017-10-31T21:37:06.614Z,6.27
2017-10-31T21:39:34.146Z,6.10
2017-10-31T21:42:01.692Z,6.27
2017-10-31T21:44:29.236Z,6.67
2017-10-31T21:46:56.782Z,6.57
2017-10-31T21:49:25.081Z,6.57
2017-10-31T21:51:53.404Z,7.03
2017-10-31T21:54:20.949Z,6.60
2017-10-31T21:56:48.487Z,6.10
2017-10-31T21:59:16.781Z,6.57
2017-10-31T22:01:44.333Z,6.00
2017-10-31T22:04:12.635Z,6.07
2017-10-31T22:06:40.173Z,6.17
2017-10-31T22:09:08.502Z,6.50
2017-10-31T22:11:36.020Z,5.97
2017-10-31T22:14:04.337Z,6.13
2017-10-31T22:16:31.862Z,6.07
2017-10-31T22:18:59.390Z,6.60
2017-10-31T22:21:26.922Z,6.60
2017-10-31T22:23:54.473Z,6.67
2017-10-31T22:26:21.995Z,6.40
2017-10-31T22:28:49.528Z,6.43
2017-10-31T22:31:17.093Z,7.17
2017-10-31T22:33:44.629Z,6.33
2017-10-31T22:36:12.928Z,6.67
2017-10-31T22:38:40.474Z,6.43
2017-10-31T22:41:08.760Z,6.63
2017-10-31T22:43:36.288Z,6.50
2017-10-31T22:46:03.819Z,6.50
2017-10-31T22:48:31.366Z,6.10
2017-10-31T22:50:58.888Z,5.93
2017-10-31T22:53:27.207Z,6.53
2017-10-31T22:55:54.726Z,6.77
2017-10-31T22:58:22.255Z,6.23
2017-10-31T23:00:49.795Z,6.20
2017-10-31T23:03:17.345Z,6.47
2017-10-31T23:05:45.660Z,6.43
2017-10-31T23:08:13.212Z,6.23
2017-10-31T23:10:40.723Z,6.20
2017-10-31T23:13:08.235Z,6.53
2017-10-31T23:15:35.750Z,6.70
2017-10-31T23:18:03.287Z,6.57
2017-10-31T23:20:30.821Z,6.67
2017-10-31T23:22:58.382Z,6.90
2017-10-31T23:25:25.935Z,6.63
2017-10-31T23:27:54.244Z,6.40
2017-10-31T23:30:21.797Z,6.73
2017-10-31T23:32:49.336Z,6.93
2017-10-31T23:35:16.865Z,5.93
2017-10-31T23:37:44.400Z,6.70
2017-10-31T23:40:11.914Z,7.03
2017-10-31T23:42:39.424Z,6.27
2017-10-31T23:45:06.964Z,6.30
2017-10-31T23:47:34.491Z,6.60
2017-10-31T23:50:02.051Z,6.53
2017-10-31T23:52:29.592Z,6.27
2017-10-31T23:54:57.135Z,6.20
2017-10-31T23:57:25.440Z,6.60
2017-10-31T23:59:52.990Z,6.87
